sensor_id;sensor_type;location;lat;lon;timestamp;pressure;altitude;pressure_sealevel;temperature;humidity
43298;BME280;28892;55.640;37.532;2023-12-20T00:01:07;96963.56;;;6.19;67.69
43298;BME280;28892;55.640;37.532;2023-12-20T00:03:34;96978.53;;;6.19;67.29
43298;BME280;28892;55.640;37.532;2023-12-20T00:06:00;96965.56;;;6.17;67.53
43298;BME280;28892;55.640;37.532;2023-12-20T00:08:26;96960.94;;;6.19;67.40
43298;BME280;28892;55.640;37.532;2023-12-20T00:10:51;96971.22;;;6.21;67.71
43298;BME280;28892;55.640;37.532;2023-12-20T00:13:17;96956.22;;;6.28;67.70
43298;BME280;28892;55.640;37.532;2023-12-20T00:15:42;96953.81;;;6.20;67.43
43298;BME280;28892;55.640;37.532;2023-12-20T00:18:10;96970.13;;;5.83;67.80
43298;BME280;28892;55.640;37.532;2023-12-20T00:20:35;96982.63;;;5.94;68.53
43298;BME280;28892;55.640;37.532;2023-12-20T00:23:01;96986.88;;;5.95;68.12
43298;BME280;28892;55.640;37.532;2023-12-20T00:25:28;96979.59;;;5.97;68.32
43298;BME280;28892;55.640;37.532;2023-12-20T00:27:54;96980.41;;;5.98;68.43
43298;BME280;28892;55.640;37.532;2023-12-20T00:30:20;96974.38;;;5.77;68.38
43298;BME280;28892;55.640;37.532;2023-12-20T00:32:47;96975.97;;;5.85;68.71
43298;BME280;28892;55.640;37.532;2023-12-20T00:35:13;96979.81;;;5.96;68.60
43298;BME280;28892;55.640;37.532;2023-12-20T00:37:40;96973.38;;;5.71;68.49
43298;BME280;28892;55.640;37.532;2023-12-20T00:40:05;96984.53;;;5.67;69.22
43298;BME280;28892;55.640;37.532;2023-12-20T00:42:31;96986.28;;;5.93;68.27
43298;BME280;28892;55.640;37.532;2023-12-20T00:44:58;96991.53;;;6.00;67.96
43298;BME280;28892;55.640;37.532;2023-12-20T00:47:23;96984.66;;;6.06;68.12
43298;BME280;28892;55.640;37.532;2023-12-20T00:49:49;96979.34;;;6.19;67.76
43298;BME280;28892;55.640;37.532;2023-12-20T00:52:15;96973.31;;;5.98;67.71
43298;BME280;28892;55.640;37.532;2023-12-20T00:54:42;96991.34;;;6.01;68.09
43298;BME280;28892;55.640;37.532;2023-12-20T00:57:08;96977.78;;;6.05;68.04
43298;BME280;28892;55.640;37.532;2023-12-20T00:59:34;96982.00;;;6.06;68.40
43298;BME280;28892;55.640;37.532;2023-12-20T01:02:00;96970.25;;;6.15;67.95
43298;BME280;28892;55.640;37.532;2023-12-20T01:04:26;96975.38;;;6.03;67.93
43298;BME280;28892;55.640;37.532;2023-12-20T01:06:52;96975.03;;;5.66;68.48
43298;BME280;28892;55.640;37.532;2023-12-20T01:09:17;96960.88;;;5.60;69.48
43298;BME280;28892;55.640;37.532;2023-12-20T01:11:44;96967.50;;;5.76;69.25
43298;BME280;28892;55.640;37.532;2023-12-20T01:14:09;96965.66;;;5.90;68.95
43298;BME280;28892;55.640;37.532;2023-12-20T01:16:36;96957.34;;;5.93;68.57
43298;BME280;28892;55.640;37.532;2023-12-20T01:19:02;96950.84;;;6.09;68.21
43298;BME280;28892;55.640;37.532;2023-12-20T01:21:27;96947.00;;;5.98;68.14
43298;BME280;28892;55.640;37.532;2023-12-20T01:23:53;96949.25;;;6.01;68.27
43298;BME280;28892;55.640;37.532;2023-12-20T01:26:19;96955.94;;;5.91;68.49
43298;BME280;28892;55.640;37.532;2023-12-20T01:28:44;96961.56;;;6.01;68.54
43298;BME280;28892;55.640;37.532;2023-12-20T01:31:10;96956.53;;;6.06;68.15
43298;BME280;28892;55.640;37.532;2023-12-20T01:33:35;96962.25;;;5.76;68.68
43298;BME280;28892;55.640;37.532;2023-12-20T01:36:01;96956.53;;;5.93;68.34
43298;BME280;28892;55.640;37.532;2023-12-20T01:38:27;96964.13;;;5.49;69.50
43298;BME280;28892;55.640;37.532;2023-12-20T01:40:53;96954.19;;;5.57;69.44
43298;BME280;28892;55.640;37.532;2023-12-20T01:43:18;96963.25;;;5.82;69.07
43298;BME280;28892;55.640;37.532;2023-12-20T01:45:44;96948.41;;;6.01;67.76
43298;BME280;28892;55.640;37.532;2023-12-20T01:48:10;96932.00;;;5.99;67.75
43298;BME280;28892;55.640;37.532;2023-12-20T01:50:36;96935.03;;;6.09;67.37
43298;BME280;28892;55.640;37.532;2023-12-20T01:53:03;96920.47;;;6.07;67.37
43298;BME280;28892;55.640;37.532;2023-12-20T01:55:31;96922.69;;;6.10;67.19
43298;BME280;28892;55.640;37.532;2023-12-20T01:57:57;96924.72;;;6.14;66.79
43298;BME280;28892;55.640;37.532;2023-12-20T02:00:23;96922.72;;;5.96;67.12
43298;BME280;28892;55.640;37.532;2023-12-20T02:02:52;96928.78;;;6.04;67.46
43298;BME280;28892;55.640;37.532;2023-12-20T02:05:19;96910.38;;;6.04;66.60
43298;BME280;28892;55.640;37.532;2023-12-20T02:07:45;96927.19;;;5.96;66.77
43298;BME280;28892;55.640;37.532;2023-12-20T02:10:11;96935.66;;;6.05;66.96
43298;BME280;28892;55.640;37.532;2023-12-20T02:12:36;96925.13;;;6.05;66.46
43298;BME280;28892;55.640;37.532;2023-12-20T02:15:02;96917.47;;;6.03;66.51
43298;BME280;28892;55.640;37.532;2023-12-20T02:17:29;96921.41;;;5.60;66.80
43298;BME280;28892;55.640;37.532;2023-12-20T02:19:56;96911.72;;;5.61;67.25
43298;BME280;28892;55.640;37.532;2023-12-20T02:22:21;96906.09;;;5.50;67.50
43298;BME280;28892;55.640;37.532;2023-12-20T02:24:46;96915.38;;;5.59;67.74
43298;BME280;28892;55.640;37.532;2023-12-20T02:27:12;96913.00;;;5.31;67.80
43298;BME280;28892;55.640;37.532;2023-12-20T02:29:39;96921.44;;;5.53;67.87
43298;BME280;28892;55.640;37.532;2023-12-20T02:32:05;96906.88;;;5.64;67.84
43298;BME280;28892;55.640;37.532;2023-12-20T02:34:30;96906.81;;;5.78;67.28
43298;BME280;28892;55.640;37.532;2023-12-20T02:36:56;96914.47;;;5.86;67.29
43298;BME280;28892;55.640;37.532;2023-12-20T02:39:22;96905.97;;;5.91;67.00
43298;BME280;28892;55.640;37.532;2023-12-20T02:41:48;96900.66;;;5.97;67.05
43298;BME280;28892;55.640;37.532;2023-12-20T02:44:14;96910.41;;;5.90;66.85
43298;BME280;28892;55.640;37.532;2023-12-20T02:46:39;96902.47;;;5.97;66.76
43298;BME280;28892;55.640;37.532;2023-12-20T02:49:05;96901.25;;;5.99;66.80
43298;BME280;28892;55.640;37.532;2023-12-20T02:51:31;96914.47;;;5.86;67.47
43298;BME280;28892;55.640;37.532;2023-12-20T02:53:56;96914.84;;;5.90;67.18
43298;BME280;28892;55.640;37.532;2023-12-20T02:56:22;96909.47;;;5.57;67.94
43298;BME280;28892;55.640;37.532;2023-12-20T02:58:48;96900.75;;;5.70;67.88
43298;BME280;28892;55.640;37.532;2023-12-20T03:01:14;96896.66;;;5.88;67.35
43298;BME280;28892;55.640;37.532;2023-12-20T03:03:39;96898.06;;;5.91;66.94
43298;BME280;28892;55.640;37.532;2023-12-20T03:06:05;96896.50;;;5.69;67.27
43298;BME280;28892;55.640;37.532;2023-12-20T03:08:31;96881.13;;;5.73;67.59
43298;BME280;28892;55.640;37.532;2023-12-20T03:10:59;96894.41;;;5.85;67.61
43298;BME280;28892;55.640;37.532;2023-12-20T03:13:25;96897.69;;;5.80;67.34
43298;BME280;28892;55.640;37.532;2023-12-20T03:15:51;96904.94;;;5.85;67.60
43298;BME280;28892;55.640;37.532;2023-12-20T03:18:16;96904.06;;;5.52;67.78
43298;BME280;28892;55.640;37.532;2023-12-20T03:20:43;96896.78;;;5.48;68.27
43298;BME280;28892;55.640;37.532;2023-12-20T03:23:09;96903.44;;;5.57;68.18
43298;BME280;28892;55.640;37.532;2023-12-20T03:25:34;96896.72;;;5.75;68.08
43298;BME280;28892;55.640;37.532;2023-12-20T03:28:01;96892.63;;;5.79;67.61
43298;BME280;28892;55.640;37.532;2023-12-20T03:30:26;96900.34;;;5.67;67.63
43298;BME280;28892;55.640;37.532;2023-12-20T03:32:52;96908.63;;;5.77;67.60
43298;BME280;28892;55.640;37.532;2023-12-20T03:35:17;96900.94;;;5.76;67.62
43298;BME280;28892;55.640;37.532;2023-12-20T03:37:43;96901.16;;;5.74;67.77
43298;BME280;28892;55.640;37.532;2023-12-20T03:40:09;96892.22;;;5.82;67.71
43298;BME280;28892;55.640;37.532;2023-12-20T03:42:34;96888.22;;;5.66;68.02
43298;BME280;28892;55.640;37.532;2023-12-20T03:45:00;96883.31;;;5.83;67.83
43298;BME280;28892;55.640;37.532;2023-12-20T03:47:28;96900.66;;;5.97;67.22
43298;BME280;28892;55.640;37.532;2023-12-20T03:49:54;96910.75;;;6.07;66.89
43298;BME280;28892;55.640;37.532;2023-12-20T03:52:20;96903.28;;;6.04;66.83
43298;BME280;28892;55.640;37.532;2023-12-20T03:54:46;96900.06;;;6.02;67.01
43298;BME280;28892;55.640;37.532;2023-12-20T03:57:12;96906.72;;;6.05;67.20
43298;BME280;28892;55.640;37.532;2023-12-20T03:59:38;96912.75;;;6.12;67.12
43298;BME280;28892;55.640;37.532;2023-12-20T04:02:04;96913.59;;;6.06;67.17
43298;BME280;28892;55.640;37.532;2023-12-20T04:04:30;96912.22;;;6.03;67.06
43298;BME280;28892;55.640;37.532;2023-12-20T04:06:56;96915.41;;;6.12;67.10
43298;BME280;28892;55.640;37.532;2023-12-20T04:09:22;96906.09;;;6.09;67.00
43298;BME280;28892;55.640;37.532;2023-12-20T04:11:49;96918.50;;;5.88;67.44
43298;BME280;28892;55.640;37.532;2023-12-20T04:14:14;96914.22;;;5.94;67.75
43298;BME280;28892;55.640;37.532;2023-12-20T04:16:40;96927.97;;;6.10;67.07
43298;BME280;28892;55.640;37.532;2023-12-20T04:19:06;96920.47;;;6.13;66.84
43298;BME280;28892;55.640;37.532;2023-12-20T04:21:31;96900.44;;;6.06;67.18
43298;BME280;28892;55.640;37.532;2023-12-20T04:23:57;96910.06;;;5.73;67.60
43298;BME280;28892;55.640;37.532;2023-12-20T04:26:22;96927.03;;;5.77;67.83
43298;BME280;28892;55.640;37.532;2023-12-20T04:28:48;96923.72;;;5.95;67.76
43298;BME280;28892;55.640;37.532;2023-12-20T04:31:14;96925.91;;;5.39;68.41
43298;BME280;28892;55.640;37.532;2023-12-20T04:33:39;96919.56;;;5.74;68.23
43298;BME280;28892;55.640;37.532;2023-12-20T04:36:06;96914.84;;;5.90;67.92
43298;BME280;28892;55.640;37.532;2023-12-20T04:38:32;96924.59;;;5.82;67.48
43298;BME280;28892;55.640;37.532;2023-12-20T04:40:57;96942.06;;;5.70;68.08
43298;BME280;28892;55.640;37.532;2023-12-20T04:43:23;96931.50;;;5.77;67.79
43298;BME280;28892;55.640;37.532;2023-12-20T04:45:49;96936.72;;;5.90;67.62
43298;BME280;28892;55.640;37.532;2023-12-20T04:48:14;96931.22;;;5.98;67.05
43298;BME280;28892;55.640;37.532;2023-12-20T04:50:40;96935.91;;;6.03;66.28
43298;BME280;28892;55.640;37.532;2023-12-20T04:53:05;96941.94;;;6.04;65.93
43298;BME280;28892;55.640;37.532;2023-12-20T04:55:32;96929.34;;;5.47;66.44
43298;BME280;28892;55.640;37.532;2023-12-20T04:57:58;96944.91;;;5.62;66.87
43298;BME280;28892;55.640;37.532;2023-12-20T05:00:23;96936.59;;;5.65;66.81
43298;BME280;28892;55.640;37.532;2023-12-20T05:02:49;96934.94;;;5.77;66.71
43298;BME280;28892;55.640;37.532;2023-12-20T05:05:14;96940.59;;;5.81;66.50
43298;BME280;28892;55.640;37.532;2023-12-20T05:07:40;96949.47;;;5.86;66.31
43298;BME280;28892;55.640;37.532;2023-12-20T05:10:06;96943.81;;;5.83;66.21
43298;BME280;28892;55.640;37.532;2023-12-20T05:12:33;96940.56;;;5.87;66.39
43298;BME280;28892;55.640;37.532;2023-12-20T05:15:00;96949.44;;;5.93;66.27
43298;BME280;28892;55.640;37.532;2023-12-20T05:17:25;96936.50;;;5.85;65.75
43298;BME280;28892;55.640;37.532;2023-12-20T05:19:52;96944.41;;;5.92;65.95
43298;BME280;28892;55.640;37.532;2023-12-20T05:22:18;96929.59;;;5.97;65.90
43298;BME280;28892;55.640;37.532;2023-12-20T05:24:44;96941.75;;;6.05;65.88
43298;BME280;28892;55.640;37.532;2023-12-20T05:27:09;96942.22;;;5.75;66.24
43298;BME280;28892;55.640;37.532;2023-12-20T05:29:36;96946.28;;;5.71;66.34
43298;BME280;28892;55.640;37.532;2023-12-20T05:32:01;96955.28;;;5.23;67.45
43298;BME280;28892;55.640;37.532;2023-12-20T05:34:30;96946.56;;;5.29;68.16
43298;BME280;28892;55.640;37.532;2023-12-20T05:36:55;96945.94;;;5.34;67.98
43298;BME280;28892;55.640;37.532;2023-12-20T05:39:21;96956.84;;;5.51;67.60
43298;BME280;28892;55.640;37.532;2023-12-20T05:41:47;96946.69;;;5.68;67.16
43298;BME280;28892;55.640;37.532;2023-12-20T05:44:14;96948.28;;;5.82;66.56
43298;BME280;28892;55.640;37.532;2023-12-20T05:46:39;96941.66;;;5.66;66.72
43298;BME280;28892;55.640;37.532;2023-12-20T05:49:05;96958.44;;;5.52;67.21
43298;BME280;28892;55.640;37.532;2023-12-20T05:51:31;96953.56;;;5.69;66.99
43298;BME280;28892;55.640;37.532;2023-12-20T05:53:57;96957.81;;;5.70;66.87
43298;BME280;28892;55.640;37.532;2023-12-20T05:56:22;96960.03;;;5.73;66.71
43298;BME280;28892;55.640;37.532;2023-12-20T05:58:48;96960.41;;;5.90;66.45
43298;BME280;28892;55.640;37.532;2023-12-20T06:01:14;96960.44;;;5.77;66.80
43298;BME280;28892;55.640;37.532;2023-12-20T06:03:42;96960.47;;;5.50;67.22
43298;BME280;28892;55.640;37.532;2023-12-20T06:06:08;96950.97;;;5.55;67.53
43298;BME280;28892;55.640;37.532;2023-12-20T06:08:34;96959.84;;;5.68;66.91
43298;BME280;28892;55.640;37.532;2023-12-20T06:11:00;96965.50;;;5.71;66.80
43298;BME280;28892;55.640;37.532;2023-12-20T06:13:25;96976.00;;;5.78;66.76
43298;BME280;28892;55.640;37.532;2023-12-20T06:15:54;96973.00;;;5.75;66.95
43298;BME280;28892;55.640;37.532;2023-12-20T06:18:19;96980.03;;;5.87;66.70
43298;BME280;28892;55.640;37.532;2023-12-20T06:20:45;96977.78;;;5.91;66.67
43298;BME280;28892;55.640;37.532;2023-12-20T06:23:11;96992.16;;;5.88;66.25
43298;BME280;28892;55.640;37.532;2023-12-20T06:25:37;96983.63;;;6.00;66.14
43298;BME280;28892;55.640;37.532;2023-12-20T06:28:03;96980.81;;;6.01;66.22
43298;BME280;28892;55.640;37.532;2023-12-20T06:30:29;96982.41;;;6.09;66.38
43298;BME280;28892;55.640;37.532;2023-12-20T06:32:55;96986.63;;;6.17;65.82
43298;BME280;28892;55.640;37.532;2023-12-20T06:35:23;96978.16;;;6.08;65.81
43298;BME280;28892;55.640;37.532;2023-12-20T06:37:49;96983.84;;;5.98;66.03
43298;BME280;28892;55.640;37.532;2023-12-20T06:40:15;96977.00;;;5.77;66.20
43298;BME280;28892;55.640;37.532;2023-12-20T06:42:41;96973.94;;;5.94;66.72
43298;BME280;28892;55.640;37.532;2023-12-20T06:45:07;96975.53;;;6.08;66.41
43298;BME280;28892;55.640;37.532;2023-12-20T06:47:34;96963.06;;;5.63;66.80
43298;BME280;28892;55.640;37.532;2023-12-20T06:50:00;96970.38;;;5.75;67.12
43298;BME280;28892;55.640;37.532;2023-12-20T06:52:27;96973.13;;;5.93;66.43
43298;BME280;28892;55.640;37.532;2023-12-20T06:54:52;96975.81;;;5.80;66.27
43298;BME280;28892;55.640;37.532;2023-12-20T06:57:18;96976.97;;;5.97;66.27
43298;BME280;28892;55.640;37.532;2023-12-20T06:59:45;96979.59;;;6.11;66.25
43298;BME280;28892;55.640;37.532;2023-12-20T07:02:11;96985.38;;;6.26;66.09
43298;BME280;28892;55.640;37.532;2023-12-20T07:04:40;96967.34;;;6.30;65.67
43298;BME280;28892;55.640;37.532;2023-12-20T07:07:06;96971.53;;;5.85;66.45
43298;BME280;28892;55.640;37.532;2023-12-20T07:09:32;96968.25;;;5.97;65.95
43298;BME280;28892;55.640;37.532;2023-12-20T07:11:58;96976.81;;;5.79;66.27
43298;BME280;28892;55.640;37.532;2023-12-20T07:14:24;96979.22;;;5.87;66.61
43298;BME280;28892;55.640;37.532;2023-12-20T07:16:50;96977.34;;;6.01;66.49
43298;BME280;28892;55.640;37.532;2023-12-20T07:19:16;96980.63;;;6.03;66.32
43298;BME280;28892;55.640;37.532;2023-12-20T07:21:42;96977.75;;;6.18;66.14
43298;BME280;28892;55.640;37.532;2023-12-20T07:24:08;96996.34;;;6.23;65.92
43298;BME280;28892;55.640;37.532;2023-12-20T07:26:35;96979.47;;;6.38;65.47
43298;BME280;28892;55.640;37.532;2023-12-20T07:29:00;96991.19;;;6.42;65.72
43298;BME280;28892;55.640;37.532;2023-12-20T07:31:29;96986.91;;;6.48;65.30
43298;BME280;28892;55.640;37.532;2023-12-20T07:33:57;96996.59;;;6.54;65.27
43298;BME280;28892;55.640;37.532;2023-12-20T07:36:24;96999.03;;;6.55;65.08
43298;BME280;28892;55.640;37.532;2023-12-20T07:38:50;97004.34;;;6.49;65.40
43298;BME280;28892;55.640;37.532;2023-12-20T07:41:19;97003.91;;;6.52;65.17
43298;BME280;28892;55.640;37.532;2023-12-20T07:43:47;97008.19;;;6.46;65.27
43298;BME280;28892;55.640;37.532;2023-12-20T07:46:15;97002.53;;;6.42;65.54
43298;BME280;28892;55.640;37.532;2023-12-20T07:48:48;97010.00;;;6.52;65.11
43298;BME280;28892;55.640;37.532;2023-12-20T07:51:32;97003.47;;;6.55;64.72
43298;BME280;28892;55.640;37.532;2023-12-20T07:54:08;97015.59;;;6.24;64.46
43298;BME280;28892;55.640;37.532;2023-12-20T07:56:35;97013.59;;;6.06;65.51
43298;BME280;28892;55.640;37.532;2023-12-20T07:59:04;97018.66;;;6.07;66.02
43298;BME280;28892;55.640;37.532;2023-12-20T08:01:31;97016.59;;;6.16;65.68
43298;BME280;28892;55.640;37.532;2023-12-20T08:03:58;97016.56;;;6.29;65.42
43298;BME280;28892;55.640;37.532;2023-12-20T08:06:23;97010.03;;;6.46;65.03
43298;BME280;28892;55.640;37.532;2023-12-20T08:08:52;97011.31;;;6.23;64.70
43298;BME280;28892;55.640;37.532;2023-12-20T08:11:19;97015.34;;;6.25;64.99
43298;BME280;28892;55.640;37.532;2023-12-20T08:13:45;97017.56;;;6.35;65.21
43298;BME280;28892;55.640;37.532;2023-12-20T08:16:11;97009.94;;;6.00;65.44
43298;BME280;28892;55.640;37.532;2023-12-20T08:18:39;97007.06;;;6.22;65.91
43298;BME280;28892;55.640;37.532;2023-12-20T08:21:06;97011.09;;;6.31;65.45
43298;BME280;28892;55.640;37.532;2023-12-20T08:23:41;97003.78;;;6.40;65.32
43298;BME280;28892;55.640;37.532;2023-12-20T08:26:07;97006.53;;;6.52;65.23
43298;BME280;28892;55.640;37.532;2023-12-20T08:28:40;97001.31;;;6.45;64.93
43298;BME280;28892;55.640;37.532;2023-12-20T08:31:18;97004.94;;;6.51;65.22
43298;BME280;28892;55.640;37.532;2023-12-20T08:33:47;97010.31;;;6.24;65.22
43298;BME280;28892;55.640;37.532;2023-12-20T08:36:14;97014.53;;;6.32;65.54
43298;BME280;28892;55.640;37.532;2023-12-20T08:38:39;97013.75;;;6.24;65.48
43298;BME280;28892;55.640;37.532;2023-12-20T08:41:06;96998.13;;;6.36;65.62
43298;BME280;28892;55.640;37.532;2023-12-20T08:43:33;97008.38;;;6.51;65.26
43298;BME280;28892;55.640;37.532;2023-12-20T08:46:09;96999.81;;;6.63;64.86
43298;BME280;28892;55.640;37.532;2023-12-20T08:48:35;96996.16;;;6.64;65.18
43298;BME280;28892;55.640;37.532;2023-12-20T08:51:01;96995.22;;;6.51;65.46
43298;BME280;28892;55.640;37.532;2023-12-20T08:53:26;96998.44;;;6.53;65.39
43298;BME280;28892;55.640;37.532;2023-12-20T08:55:52;96999.81;;;6.63;65.26
43298;BME280;28892;55.640;37.532;2023-12-20T08:58:21;96995.53;;;6.16;66.26
43298;BME280;28892;55.640;37.532;2023-12-20T09:00:47;96989.03;;;6.25;66.23
43298;BME280;28892;55.640;37.532;2023-12-20T09:03:15;96999.13;;;6.35;65.94
43298;BME280;28892;55.640;37.532;2023-12-20T09:05:41;96999.69;;;6.44;65.95
43298;BME280;28892;55.640;37.532;2023-12-20T09:08:08;97003.13;;;6.51;65.86
43298;BME280;28892;55.640;37.532;2023-12-20T09:10:36;97001.81;;;6.61;65.28
43298;BME280;28892;55.640;37.532;2023-12-20T09:13:02;96999.22;;;6.54;65.71
43298;BME280;28892;55.640;37.532;2023-12-20T09:15:29;96990.50;;;6.60;65.39
43298;BME280;28892;55.640;37.532;2023-12-20T09:17:55;96991.91;;;6.63;65.25
43298;BME280;28892;55.640;37.532;2023-12-20T09:20:21;96998.19;;;6.62;65.36
43298;BME280;28892;55.640;37.532;2023-12-20T09:22:49;96984.44;;;6.53;65.43
43298;BME280;28892;55.640;37.532;2023-12-20T09:25:15;96991.56;;;6.52;65.70
43298;BME280;28892;55.640;37.532;2023-12-20T09:27:44;96991.16;;;6.49;65.72
43298;BME280;28892;55.640;37.532;2023-12-20T09:30:09;96981.56;;;6.61;65.38
43298;BME280;28892;55.640;37.532;2023-12-20T09:32:37;96991.53;;;6.59;65.56
43298;BME280;28892;55.640;37.532;2023-12-20T09:35:02;96988.28;;;6.18;66.30
43298;BME280;28892;55.640;37.532;2023-12-20T09:37:31;96976.25;;;6.29;66.20
43298;BME280;28892;55.640;37.532;2023-12-20T09:39:57;96976.00;;;6.44;66.11
43298;BME280;28892;55.640;37.532;2023-12-20T09:42:29;96976.78;;;6.51;65.85
43298;BME280;28892;55.640;37.532;2023-12-20T09:44:59;96979.97;;;6.60;65.62
43298;BME280;28892;55.640;37.532;2023-12-20T09:47:29;96977.91;;;6.62;65.35
43298;BME280;28892;55.640;37.532;2023-12-20T09:49:55;96970.22;;;6.61;65.65
43298;BME280;28892;55.640;37.532;2023-12-20T09:52:21;96967.56;;;6.61;65.35
43298;BME280;28892;55.640;37.532;2023-12-20T09:54:51;96977.28;;;6.28;65.50
43298;BME280;28892;55.640;37.532;2023-12-20T09:57:18;96958.28;;;6.19;66.20
43298;BME280;28892;55.640;37.532;2023-12-20T09:59:45;96968.41;;;6.22;66.34
43298;BME280;28892;55.640;37.532;2023-12-20T10:02:12;96981.75;;;6.21;66.58
43298;BME280;28892;55.640;37.532;2023-12-20T10:04:40;96977.25;;;6.35;66.16
43298;BME280;28892;55.640;37.532;2023-12-20T10:07:08;96987.22;;;6.26;66.21
43298;BME280;28892;55.640;37.532;2023-12-20T10:09:35;96976.47;;;6.34;66.51
43298;BME280;28892;55.640;37.532;2023-12-20T10:12:01;96971.00;;;6.29;66.12
43298;BME280;28892;55.640;37.532;2023-12-20T10:14:27;96972.25;;;6.20;66.36
43298;BME280;28892;55.640;37.532;2023-12-20T10:16:52;96972.84;;;6.22;66.51
43298;BME280;28892;55.640;37.532;2023-12-20T10:19:19;96984.34;;;6.34;66.40
43298;BME280;28892;55.640;37.532;2023-12-20T10:21:46;96989.13;;;6.05;66.49
43298;BME280;28892;55.640;37.532;2023-12-20T10:24:18;96990.34;;;5.96;67.28
43298;BME280;28892;55.640;37.532;2023-12-20T10:26:44;96988.94;;;5.86;67.44
43298;BME280;28892;55.640;37.532;2023-12-20T10:29:09;97008.31;;;6.19;66.69
43298;BME280;28892;55.640;37.532;2023-12-20T10:31:35;96994.84;;;5.75;67.89
43298;BME280;28892;55.640;37.532;2023-12-20T10:34:02;96997.66;;;5.80;67.86
43298;BME280;28892;55.640;37.532;2023-12-20T10:36:29;96991.75;;;5.85;67.62
43298;BME280;28892;55.640;37.532;2023-12-20T10:38:57;96983.94;;;5.58;68.48
43298;BME280;28892;55.640;37.532;2023-12-20T10:41:27;96987.91;;;6.08;66.91
43298;BME280;28892;55.640;37.532;2023-12-20T10:43:56;96991.66;;;6.25;66.28
43298;BME280;28892;55.640;37.532;2023-12-20T10:46:22;96996.75;;;6.20;66.12
43298;BME280;28892;55.640;37.532;2023-12-20T10:48:47;97001.69;;;5.96;66.97
43298;BME280;28892;55.640;37.532;2023-12-20T10:51:17;96999.78;;;6.17;66.87
43298;BME280;28892;55.640;37.532;2023-12-20T10:53:43;96995.50;;;6.29;66.43
43298;BME280;28892;55.640;37.532;2023-12-20T10:56:10;97003.94;;;6.45;65.83
43298;BME280;28892;55.640;37.532;2023-12-20T10:58:41;97008.16;;;5.94;67.22
43298;BME280;28892;55.640;37.532;2023-12-20T11:01:08;97010.16;;;5.98;67.13
43298;BME280;28892;55.640;37.532;2023-12-20T11:03:41;97018.72;;;5.80;67.68
43298;BME280;28892;55.640;37.532;2023-12-20T11:09:31;97012.59;;;5.93;67.40
43298;BME280;28892;55.640;37.532;2023-12-20T11:12:10;97012.78;;;6.12;67.64
43298;BME280;28892;55.640;37.532;2023-12-20T11:14:54;97014.53;;;6.32;67.00
43298;BME280;28892;55.640;37.532;2023-12-20T11:17:35;97012.63;;;6.52;65.96
43298;BME280;28892;55.640;37.532;2023-12-20T11:20:10;97018.09;;;6.51;65.96
43298;BME280;28892;55.640;37.532;2023-12-20T11:25:29;97010.72;;;6.66;65.30
43298;BME280;28892;55.640;37.532;2023-12-20T11:28:06;97015.25;;;6.52;65.40
43298;BME280;28892;55.640;37.532;2023-12-20T11:30:50;96999.81;;;6.63;65.34
43298;BME280;28892;55.640;37.532;2023-12-20T11:33:21;97009.22;;;6.45;65.32
43298;BME280;28892;55.640;37.532;2023-12-20T11:35:46;97014.00;;;6.09;65.96
43298;BME280;28892;55.640;37.532;2023-12-20T11:38:13;97009.16;;;5.99;66.77
43298;BME280;28892;55.640;37.532;2023-12-20T11:40:42;97014.91;;;5.49;68.78
43298;BME280;28892;55.640;37.532;2023-12-20T11:43:10;97014.22;;;5.87;68.09
43298;BME280;28892;55.640;37.532;2023-12-20T11:45:38;97011.56;;;6.14;67.04
43298;BME280;28892;55.640;37.532;2023-12-20T11:48:15;97006.44;;;6.26;66.57
43298;BME280;28892;55.640;37.532;2023-12-20T11:50:40;97012.88;;;6.44;66.33
43298;BME280;28892;55.640;37.532;2023-12-20T11:53:06;97009.75;;;6.54;65.81
43298;BME280;28892;55.640;37.532;2023-12-20T11:55:33;97005.13;;;6.56;65.65
43298;BME280;28892;55.640;37.532;2023-12-20T11:57:59;97003.88;;;6.59;65.79
43298;BME280;28892;55.640;37.532;2023-12-20T12:00:25;97002.69;;;6.54;65.66
43298;BME280;28892;55.640;37.532;2023-12-20T12:02:57;97010.34;;;6.63;65.75
43298;BME280;28892;55.640;37.532;2023-12-20T12:05:23;97006.25;;;6.67;65.63
43298;BME280;28892;55.640;37.532;2023-12-20T12:07:49;97013.41;;;6.53;65.66
43298;BME280;28892;55.640;37.532;2023-12-20T12:10:14;97015.69;;;6.42;65.77
43298;BME280;28892;55.640;37.532;2023-12-20T12:12:40;97001.66;;;6.55;65.66
43298;BME280;28892;55.640;37.532;2023-12-20T12:15:06;97020.50;;;6.59;65.46
43298;BME280;28892;55.640;37.532;2023-12-20T12:17:32;97017.66;;;6.54;65.30
43298;BME280;28892;55.640;37.532;2023-12-20T12:20:02;97011.56;;;6.60;65.48
43298;BME280;28892;55.640;37.532;2023-12-20T12:22:28;97019.66;;;6.59;65.42
43298;BME280;28892;55.640;37.532;2023-12-20T12:24:54;97007.66;;;6.69;65.36
43298;BME280;28892;55.640;37.532;2023-12-20T12:27:25;97013.97;;;6.68;65.23
43298;BME280;28892;55.640;37.532;2023-12-20T12:30:02;97030.47;;;6.43;65.15
43298;BME280;28892;55.640;37.532;2023-12-20T12:32:29;97024.00;;;6.46;65.44
43298;BME280;28892;55.640;37.532;2023-12-20T12:34:55;97032.09;;;6.45;65.67
43298;BME280;28892;55.640;37.532;2023-12-20T12:37:20;97027.16;;;6.09;66.03
43298;BME280;28892;55.640;37.532;2023-12-20T12:39:50;97035.81;;;6.30;66.02
43298;BME280;28892;55.640;37.532;2023-12-20T12:42:18;97037.84;;;6.28;65.52
43298;BME280;28892;55.640;37.532;2023-12-20T12:44:44;97031.13;;;6.32;65.49
43298;BME280;28892;55.640;37.532;2023-12-20T12:47:15;97023.09;;;6.20;65.69
43298;BME280;28892;55.640;37.532;2023-12-20T12:49:45;97023.22;;;6.32;65.43
43298;BME280;28892;55.640;37.532;2023-12-20T12:52:12;97027.88;;;6.37;65.53
43298;BME280;28892;55.640;37.532;2023-12-20T12:54:37;97024.44;;;6.36;65.74
43298;BME280;28892;55.640;37.532;2023-12-20T12:57:05;97048.50;;;6.47;65.45
43298;BME280;28892;55.640;37.532;2023-12-20T12:59:30;97042.22;;;6.48;65.47
43298;BME280;28892;55.640;37.532;2023-12-20T13:01:57;97040.75;;;6.59;65.01
43298;BME280;28892;55.640;37.532;2023-12-20T13:04:23;97039.94;;;6.58;64.75